createdAt,value
2017-05-03T00:00:18.074Z,1037.81
2017-05-03T00:01:18.065Z,1037.81
2017-05-03T00:02:18.055Z,1037.78
2017-05-03T00:03:18.046Z,1037.79
2017-05-03T00:04:18.035Z,1037.81
2017-05-03T00:05:18.029Z,1037.8
2017-05-03T00:06:18.017Z,1037.81
2017-05-03T00:07:18.014Z,1037.81
2017-05-03T00:08:17.999Z,1037.83
2017-05-03T00:09:17.989Z,1037.85
2017-05-03T00:10:17.979Z,1037.87
2017-05-03T00:11:17.970Z,1037.85
2017-05-03T00:12:17.961Z,1037.86
2017-05-03T00:13:17.951Z,1037.85
2017-05-03T00:14:17.941Z,1037.83
2017-05-03T00:15:17.932Z,1037.87
2017-05-03T00:16:17.922Z,1037.9
2017-05-03T00:17:17.912Z,1037.91
2017-05-03T00:18:17.903Z,1037.91
2017-05-03T00:19:17.895Z,1037.92
2017-05-03T00:20:17.883Z,1037.94
2017-05-03T00:21:17.874Z,1037.96
2017-05-03T00:22:17.865Z,1037.98
2017-05-03T00:23:17.857Z,1038.05
2017-05-03T00:24:17.847Z,1038.03
2017-05-03T00:25:17.836Z,1038.07
2017-05-03T00:26:17.827Z,1038.06
2017-05-03T00:27:17.816Z,1038.1
2017-05-03T00:28:17.807Z,1038.06
2017-05-03T00:29:17.798Z,1038.07
2017-05-03T00:30:17.788Z,1038.1
2017-05-03T00:31:17.777Z,1038.12
2017-05-03T00:32:17.768Z,1038.15
2017-05-03T00:33:17.758Z,1038.15
2017-05-03T00:34:17.749Z,1038.12
2017-05-03T00:35:17.739Z,1038.15
2017-05-03T00:36:17.729Z,1038.16
2017-05-03T00:37:17.722Z,1038.11
2017-05-03T00:38:17.710Z,1038.14
2017-05-03T00:39:17.700Z,1038.13
2017-05-03T00:40:17.690Z,1038.15
2017-05-03T00:41:17.681Z,1038.22
2017-05-03T00:42:17.670Z,1038.19
2017-05-03T00:43:17.662Z,1038.16
2017-05-03T00:44:17.652Z,1038.18
2017-05-03T00:45:17.642Z,1038.16
2017-05-03T00:46:17.631Z,1038.18
2017-05-03T00:47:17.622Z,1038.17
2017-05-03T00:48:17.613Z,1038.19
2017-05-03T00:49:17.602Z,1038.2
2017-05-03T00:50:17.593Z,1038.23
2017-05-03T00:51:17.583Z,1038.23
2017-05-03T00:52:17.575Z,1038.21
2017-05-03T00:53:17.563Z,1038.2
2017-05-03T00:54:17.554Z,1038.21
2017-05-03T00:55:17.544Z,1038.2
2017-05-03T00:56:17.534Z,1038.23
2017-05-03T00:57:17.524Z,1038.2
2017-05-03T00:58:17.515Z,1038.25
2017-05-03T00:59:17.505Z,1038.26
2017-05-03T01:00:17.494Z,1038.25
2017-05-03T01:01:17.485Z,1038.23
2017-05-03T01:02:17.480Z,1038.25
2017-05-03T01:03:17.466Z,1038.28
2017-05-03T01:04:17.455Z,1038.31
2017-05-03T01:05:17.446Z,1038.31
2017-05-03T01:06:17.436Z,1038.33
2017-05-03T01:07:17.426Z,1038.34
2017-05-03T01:08:17.418Z,1038.25
2017-05-03T01:09:17.407Z,1038.24
2017-05-03T01:10:17.397Z,1038.19
2017-05-03T01:11:17.386Z,1038.15
2017-05-03T01:12:17.377Z,1038.07
2017-05-03T01:13:17.368Z,1037.99
2017-05-03T01:14:17.359Z,1037.97
2017-05-03T01:15:17.347Z,1037.91
2017-05-03T01:16:17.338Z,1037.91
2017-05-03T01:17:17.329Z,1037.87
2017-05-03T01:18:17.320Z,1037.83
2017-05-03T01:19:17.309Z,1037.78
2017-05-03T01:20:17.299Z,1037.77
2017-05-03T01:21:17.289Z,1037.72
2017-05-03T01:22:17.280Z,1037.71
2017-05-03T01:23:17.271Z,1037.72
2017-05-03T01:24:17.262Z,1037.73
2017-05-03T01:25:17.251Z,1037.67
2017-05-03T01:26:17.257Z,1037.67
2017-05-03T01:27:17.233Z,1037.63
2017-05-03T01:28:17.223Z,1037.63
2017-05-03T01:29:17.213Z,1037.64
2017-05-03T01:30:17.204Z,1037.67
2017-05-03T01:31:17.196Z,1037.67
2017-05-03T01:32:17.187Z,1037.74
2017-05-03T01:33:17.177Z,1037.76
2017-05-03T01:34:17.168Z,1037.79
2017-05-03T01:35:17.159Z,1037.77
2017-05-03T01:36:17.150Z,1037.79
2017-05-03T01:37:17.139Z,1037.82
2017-05-03T01:38:17.131Z,1037.84
2017-05-03T01:39:17.122Z,1037.8
2017-05-03T01:40:17.111Z,1037.79
2017-05-03T01:41:17.103Z,1037.8
2017-05-03T01:42:17.096Z,1037.76
2017-05-03T01:43:17.085Z,1037.76
2017-05-03T01:44:17.075Z,1037.77
2017-05-03T01:45:17.066Z,1037.77
2017-05-03T01:46:17.057Z,1037.76
2017-05-03T01:47:17.049Z,1037.74
2017-05-03T01:48:17.038Z,1037.73
2017-05-03T01:49:17.030Z,1037.72
2017-05-03T01:50:17.021Z,1037.69
2017-05-03T01:51:17.011Z,1037.71
2017-05-03T01:52:17.002Z,1037.68
2017-05-03T01:53:16.994Z,1037.68
2017-05-03T01:54:16.991Z,1037.69
2017-05-03T01:55:16.975Z,1037.66
2017-05-03T01:56:16.969Z,1037.65
2017-05-03T01:57:16.959Z,1037.58
2017-05-03T01:58:16.950Z,1037.59
2017-05-03T01:59:16.941Z,1037.54
2017-05-03T02:00:16.931Z,1037.55
2017-05-03T02:01:16.924Z,1037.49
2017-05-03T02:02:16.913Z,1037.5
2017-05-03T02:03:16.905Z,1037.43
2017-05-03T02:04:16.896Z,1037.38
2017-05-03T02:05:16.887Z,1037.33
2017-05-03T02:06:16.877Z,1037.36
2017-05-03T02:07:16.869Z,1037.29
2017-05-03T02:08:16.861Z,1037.25
2017-05-03T02:09:16.852Z,1037.26
2017-05-03T02:10:16.843Z,1037.27
2017-05-03T02:11:16.834Z,1037.25
2017-05-03T02:12:16.827Z,1037.26
2017-05-03T02:13:16.816Z,1037.25
2017-05-03T02:14:16.808Z,1037.23
2017-05-03T02:15:16.800Z,1037.18
2017-05-03T02:16:16.791Z,1037.19
2017-05-03T02:17:16.783Z,1037.19
2017-05-03T02:18:16.774Z,1037.23
2017-05-03T02:19:16.766Z,1037.23
2017-05-03T02:20:16.757Z,1037.23
2017-05-03T02:21:16.748Z,1037.21
2017-05-03T02:22:16.740Z,1037.2
2017-05-03T02:23:16.732Z,1037.24
2017-05-03T02:24:16.725Z,1037.28
2017-05-03T02:25:16.714Z,1037.24
2017-05-03T02:26:16.706Z,1037.25
2017-05-03T02:27:16.699Z,1037.26
2017-05-03T02:28:16.689Z,1037.22
2017-05-03T02:29:16.681Z,1037.18
2017-05-03T02:30:16.673Z,1037.21
2017-05-03T02:31:16.665Z,1037.19
2017-05-03T02:32:16.656Z,1037.18
2017-05-03T02:33:16.648Z,1037.26
2017-05-03T02:34:16.640Z,1037.27
2017-05-03T02:35:16.630Z,1037.21
2017-05-03T02:36:16.623Z,1037.22
2017-05-03T02:37:16.615Z,1037.22
2017-05-03T02:38:16.606Z,1037.23
2017-05-03T02:39:16.598Z,1037.19
2017-05-03T02:40:16.590Z,1037.23
2017-05-03T02:41:16.581Z,1037.23
2017-05-03T02:42:16.574Z,1037.23
2017-05-03T02:43:16.564Z,1037.25
2017-05-03T02:44:16.556Z,1037.28
2017-05-03T02:45:16.548Z,1037.29
2017-05-03T02:46:16.539Z,1037.32
2017-05-03T02:47:16.532Z,1037.3
2017-05-03T02:48:16.524Z,1037.28
2017-05-03T02:49:16.515Z,1037.29
2017-05-03T02:50:16.506Z,1037.27
2017-05-03T02:51:16.498Z,1037.31
2017-05-03T02:52:16.491Z,1037.28
2017-05-03T02:53:16.483Z,1037.3
2017-05-03T02:54:16.474Z,1037.28
2017-05-03T02:55:16.466Z,1037.28
2017-05-03T02:56:16.459Z,1037.26
2017-05-03T02:57:16.449Z,1037.31
2017-05-03T02:58:16.441Z,1037.33
2017-05-03T02:59:16.433Z,1037.31
2017-05-03T03:00:16.425Z,1037.29
2017-05-03T03:01:16.416Z,1037.3
2017-05-03T03:02:16.409Z,1037.29
2017-05-03T03:03:16.400Z,1037.28
2017-05-03T03:04:16.393Z,1037.3
2017-05-03T03:05:16.384Z,1037.3
2017-05-03T03:06:16.376Z,1037.27
2017-05-03T03:07:16.369Z,1037.28
2017-05-03T03:08:16.359Z,1037.28
2017-05-03T03:09:16.352Z,1037.27
2017-05-03T03:10:16.343Z,1037.24
2017-05-03T03:11:16.336Z,1037.26
2017-05-03T03:12:16.327Z,1037.27
2017-05-03T03:13:16.319Z,1037.25
2017-05-03T03:14:16.311Z,1037.27
2017-05-03T03:15:16.302Z,1037.29
2017-05-03T03:16:16.294Z,1037.31
2017-05-03T03:17:16.286Z,1037.32
2017-05-03T03:18:16.300Z,1037.3
2017-05-03T03:19:16.270Z,1037.28
2017-05-03T03:20:16.265Z,1037.28
2017-05-03T03:21:16.254Z,1037.27
2017-05-03T03:22:16.246Z,1037.3
2017-05-03T03:23:16.237Z,1037.28
2017-05-03T03:24:16.229Z,1037.32
2017-05-03T03:25:16.221Z,1037.32
2017-05-03T03:26:16.212Z,1037.25
2017-05-03T03:27:16.205Z,1037.23
2017-05-03T03:28:16.197Z,1037.24
2017-05-03T03:29:16.188Z,1037.18
2017-05-03T03:30:16.180Z,1037.21
2017-05-03T03:31:16.172Z,1037.2
2017-05-03T03:32:16.164Z,1037.19
2017-05-03T03:33:16.156Z,1037.19
2017-05-03T03:34:16.147Z,1037.23
2017-05-03T03:35:16.139Z,1037.25
2017-05-03T03:36:16.131Z,1037.22
2017-05-03T03:37:16.130Z,1037.2
2017-05-03T03:38:16.115Z,1037.24
2017-05-03T03:39:16.107Z,1037.19
2017-05-03T03:40:16.099Z,1037.24
2017-05-03T03:41:16.092Z,1037.27
2017-05-03T03:42:16.082Z,1037.28
2017-05-03T03:43:16.075Z,1037.28
2017-05-03T03:44:16.066Z,1037.29
2017-05-03T03:45:16.058Z,1037.29
2017-05-03T03:46:16.051Z,1037.36
2017-05-03T03:47:16.042Z,1037.44
2017-05-03T03:48:16.034Z,1037.49
2017-05-03T03:49:16.025Z,1037.45
2017-05-03T03:50:16.022Z,1037.48
2017-05-03T03:51:16.009Z,1037.45
2017-05-03T03:52:16.001Z,1037.4
2017-05-03T03:53:15.992Z,1037.42
2017-05-03T03:54:15.985Z,1037.4
2017-05-03T03:55:15.977Z,1037.38
2017-05-03T03:56:15.969Z,1037.42
2017-05-03T03:57:15.961Z,1037.43
2017-05-03T03:58:15.953Z,1037.44
2017-05-03T03:59:15.944Z,1037.43
2017-05-03T04:00:15.936Z,1037.46
2017-05-03T04:01:15.928Z,1037.49
2017-05-03T04:02:15.921Z,1037.51
2017-05-03T04:03:15.912Z,1037.49
2017-05-03T04:04:15.904Z,1037.46
2017-05-03T04:05:15.896Z,1037.41
2017-05-03T04:06:15.888Z,1037.48
2017-05-03T04:07:15.880Z,1037.5
2017-05-03T04:08:15.872Z,1037.5
2017-05-03T04:09:15.864Z,1037.49
2017-05-03T04:10:15.855Z,1037.48
2017-05-03T04:11:15.847Z,1037.5
2017-05-03T04:12:15.841Z,1037.53
2017-05-03T04:13:15.831Z,1037.61
2017-05-03T04:14:15.822Z,1037.6
2017-05-03T04:15:15.815Z,1037.64
2017-05-03T04:16:15.807Z,1037.61
2017-05-03T04:17:15.801Z,1037.64
2017-05-03T04:18:15.791Z,1037.64
2017-05-03T04:19:15.782Z,1037.66
2017-05-03T04:20:15.775Z,1037.62
2017-05-03T04:21:15.766Z,1037.63
2017-05-03T04:22:15.758Z,1037.61
2017-05-03T04:23:15.751Z,1037.66
2017-05-03T04:24:15.743Z,1037.74
2017-05-03T04:25:15.733Z,1037.79
2017-05-03T04:26:15.726Z,1037.81
2017-05-03T04:27:15.718Z,1037.83
2017-05-03T04:28:15.711Z,1037.81
2017-05-03T04:29:15.702Z,1037.83
2017-05-03T04:30:15.695Z,1037.83
2017-05-03T04:31:15.686Z,1037.85
2017-05-03T04:32:15.678Z,1037.86
2017-05-03T04:33:15.670Z,1037.86
2017-05-03T04:34:15.662Z,1037.77
2017-05-03T04:35:15.654Z,1037.77
2017-05-03T04:36:15.645Z,1037.8
2017-05-03T04:37:15.637Z,1037.78
2017-05-03T04:38:15.629Z,1037.89
2017-05-03T04:39:15.622Z,1037.92
2017-05-03T04:40:15.615Z,1037.92
2017-05-03T04:41:15.608Z,1037.9
2017-05-03T04:42:15.599Z,1037.82
2017-05-03T04:43:15.590Z,1037.79
2017-05-03T04:44:15.582Z,1037.78
2017-05-03T04:45:15.574Z,1037.8
2017-05-03T04:46:15.566Z,1037.81
2017-05-03T04:47:15.558Z,1037.75
2017-05-03T04:48:15.550Z,1037.74
2017-05-03T04:49:15.542Z,1037.72
2017-05-03T04:50:15.534Z,1037.69
2017-05-03T04:51:15.527Z,1037.63
2017-05-03T04:52:15.518Z,1037.67
2017-05-03T04:53:15.510Z,1037.71
2017-05-03T04:54:15.502Z,1037.76
2017-05-03T04:55:15.494Z,1037.72
2017-05-03T04:56:15.486Z,1037.67
2017-05-03T04:57:15.479Z,1037.63
2017-05-03T04:58:15.470Z,1037.62
2017-05-03T04:59:15.462Z,1037.58
2017-05-03T05:00:15.456Z,1037.64
2017-05-03T05:01:15.446Z,1037.61
2017-05-03T05:02:15.438Z,1037.65
2017-05-03T05:03:15.431Z,1037.68
2017-05-03T05:04:15.423Z,1037.69
2017-05-03T05:05:15.415Z,1037.59
2017-05-03T05:06:15.407Z,1037.56
2017-05-03T05:07:15.400Z,1037.58
2017-05-03T05:08:15.392Z,1037.66
2017-05-03T05:09:15.383Z,1037.63
2017-05-03T05:10:15.376Z,1037.62
2017-05-03T05:11:15.368Z,1037.61
2017-05-03T05:12:15.360Z,1037.5
2017-05-03T05:13:15.353Z,1037.47
2017-05-03T05:14:15.346Z,1037.37
2017-05-03T05:15:15.337Z,1037.34
2017-05-03T05:16:15.330Z,1037.43
2017-05-03T05:17:15.322Z,1037.41
2017-05-03T05:18:15.315Z,1037.39
2017-05-03T05:19:15.307Z,1037.34
2017-05-03T05:20:15.298Z,1037.35
2017-05-03T05:21:15.291Z,1037.33
2017-05-03T05:22:15.284Z,1037.34
2017-05-03T05:23:15.276Z,1037.33
2017-05-03T05:24:15.269Z,1037.27
2017-05-03T05:25:15.261Z,1037.27
2017-05-03T05:26:15.254Z,1037.25
2017-05-03T05:27:15.246Z,1037.22
2017-05-03T05:28:15.240Z,1037.2
2017-05-03T05:29:15.232Z,1037.17
2017-05-03T05:30:15.225Z,1037.14
2017-05-03T05:31:15.217Z,1037.14
2017-05-03T05:32:15.209Z,1037.09
2017-05-03T05:33:15.203Z,1037.09
2017-05-03T05:34:15.194Z,1037.1
2017-05-03T05:35:15.187Z,1037.13
2017-05-03T05:36:15.181Z,1037.15
2017-05-03T05:37:15.174Z,1037.18
2017-05-03T05:38:15.173Z,1037.12
2017-05-03T05:39:15.168Z,1037.16
2017-05-03T05:40:15.152Z,1037.16
2017-05-03T05:41:15.146Z,1037.17
2017-05-03T05:42:15.147Z,1037.2
2017-05-03T05:43:15.141Z,1037.12
2017-05-03T05:44:15.124Z,1037.1
2017-05-03T05:45:15.126Z,1037.03
2017-05-03T05:46:15.111Z,1037.06
2017-05-03T05:47:15.103Z,1037.04
2017-05-03T05:48:15.096Z,1037.02
2017-05-03T05:49:15.088Z,1036.98
2017-05-03T05:50:15.091Z,1036.92
2017-05-03T05:51:15.075Z,1036.83
2017-05-03T05:52:15.067Z,1036.73
2017-05-03T05:53:15.069Z,1036.6
2017-05-03T05:54:15.063Z,1036.55
2017-05-03T05:55:15.055Z,1036.42
2017-05-03T05:56:15.049Z,1036.36
2017-05-03T05:57:15.043Z,1036.34
2017-05-03T05:58:15.026Z,1036.36
2017-05-03T05:59:15.020Z,1036.42
2017-05-03T06:00:15.025Z,1036.49
2017-05-03T06:01:15.007Z,1036.55
2017-05-03T06:02:15.006Z,1036.44
2017-05-03T06:03:14.994Z,1036.37
2017-05-03T06:04:14.987Z,1036.35
2017-05-03T06:05:14.980Z,1036.48
2017-05-03T06:06:14.974Z,1036.51
2017-05-03T06:07:14.967Z,1036.43
2017-05-03T06:08:14.962Z,1036.37
2017-05-03T06:09:14.955Z,1036.4
2017-05-03T06:10:14.949Z,1036.35
2017-05-03T06:11:14.943Z,1036.32
2017-05-03T06:12:14.936Z,1036.28
2017-05-03T06:13:14.931Z,1036.3
2017-05-03T06:14:14.924Z,1036.34
2017-05-03T06:15:14.918Z,1036.38
2017-05-03T06:16:14.912Z,1036.34
2017-05-03T06:17:14.905Z,1036.34
2017-05-03T06:18:14.899Z,1036.33
2017-05-03T06:19:14.893Z,1036.43
2017-05-03T06:20:14.888Z,1036.46
2017-05-03T06:21:14.881Z,1036.5
2017-05-03T06:22:14.875Z,1036.5
2017-05-03T06:23:14.869Z,1036.58
2017-05-03T06:24:14.864Z,1036.53
2017-05-03T06:25:14.857Z,1036.57
2017-05-03T06:26:14.851Z,1036.53
2017-05-03T06:27:14.845Z,1036.51
2017-05-03T06:28:14.839Z,1036.56
2017-05-03T06:29:14.833Z,1036.6
2017-05-03T06:30:14.827Z,1036.58
2017-05-03T06:31:14.821Z,1036.58
2017-05-03T06:32:14.815Z,1036.66
2017-05-03T06:33:14.808Z,1036.71
2017-05-03T06:34:14.802Z,1036.72
2017-05-03T06:35:14.797Z,1036.77
2017-05-03T06:36:14.790Z,1036.89
2017-05-03T06:37:14.784Z,1036.78
2017-05-03T06:38:14.778Z,1036.91
2017-05-03T06:39:14.773Z,1036.91
2017-05-03T06:40:14.766Z,1036.92
2017-05-03T06:41:14.759Z,1036.82
2017-05-03T06:42:14.753Z,1036.71
2017-05-03T06:43:14.748Z,1036.62
2017-05-03T06:44:14.741Z,1036.56
2017-05-03T06:45:14.735Z,1036.53
2017-05-03T06:46:14.729Z,1036.49
2017-05-03T06:47:14.722Z,1036.58
2017-05-03T06:48:14.716Z,1036.57
2017-05-03T06:49:14.711Z,1036.6
2017-05-03T06:50:14.704Z,1036.56
2017-05-03T06:51:14.698Z,1036.48
2017-05-03T06:52:14.692Z,1036.41
2017-05-03T06:53:14.687Z,1036.44
2017-05-03T06:54:14.680Z,1036.41
2017-05-03T06:55:14.674Z,1036.5
2017-05-03T06:56:14.667Z,1036.58
2017-05-03T06:57:14.662Z,1036.51
2017-05-03T06:58:14.656Z,1036.45
2017-05-03T06:59:14.650Z,1036.42
2017-05-03T07:00:14.644Z,1036.42
2017-05-03T07:01:14.639Z,1036.4
2017-05-03T07:02:14.632Z,1036.46
2017-05-03T07:03:14.627Z,1036.57
2017-05-03T07:04:14.621Z,1036.53
2017-05-03T07:05:14.615Z,1036.57
2017-05-03T07:06:14.608Z,1036.58
2017-05-03T07:07:14.603Z,1036.6
2017-05-03T07:08:14.624Z,1036.7
2017-05-03T07:09:14.591Z,1036.74
2017-05-03T07:10:14.586Z,1036.66
2017-05-03T07:11:14.580Z,1036.66
2017-05-03T07:12:14.574Z,1036.57
2017-05-03T07:13:14.568Z,1036.64
2017-05-03T07:14:14.562Z,1036.68
2017-05-03T07:15:14.555Z,1036.68
2017-05-03T07:16:14.551Z,1036.66
2017-05-03T07:17:14.545Z,1036.59
2017-05-03T07:18:14.539Z,1036.57
2017-05-03T07:19:14.537Z,1036.41
2017-05-03T07:20:14.527Z,1036.32
2017-05-03T07:21:14.521Z,1036.29
2017-05-03T07:22:14.516Z,1036.18
2017-05-03T07:23:14.511Z,1036.04
2017-05-03T07:24:14.505Z,1035.97
2017-05-03T07:25:14.498Z,1035.99
2017-05-03T07:26:14.493Z,1035.95
2017-05-03T07:27:14.488Z,1036.03
2017-05-03T07:28:14.482Z,1035.99
2017-05-03T07:29:14.476Z,1035.96
2017-05-03T07:30:14.471Z,1035.96
2017-05-03T07:31:14.464Z,1036.13
2017-05-03T07:32:14.460Z,1036.23
2017-05-03T07:33:14.454Z,1036.22
2017-05-03T07:34:14.449Z,1036.22
2017-05-03T07:35:14.443Z,1036.23
2017-05-03T07:36:14.437Z,1036.29
2017-05-03T07:37:14.433Z,1036.25
2017-05-03T07:38:14.430Z,1036.25
2017-05-03T07:39:14.421Z,1036.23
2017-05-03T07:40:14.416Z,1036.28
2017-05-03T07:41:14.412Z,1036.31
2017-05-03T07:42:14.405Z,1036.34
2017-05-03T07:43:14.400Z,1036.39
2017-05-03T07:44:14.394Z,1036.38
2017-05-03T07:45:14.392Z,1036.27
2017-05-03T07:46:14.384Z,1036.18
2017-05-03T07:47:14.378Z,1036.21
2017-05-03T07:48:14.374Z,1036.21
2017-05-03T07:49:14.368Z,1036.18
2017-05-03T07:50:14.364Z,1036.12
2017-05-03T07:51:14.359Z,1036.11
2017-05-03T07:52:14.354Z,1036.08
2017-05-03T07:53:14.347Z,1036.04
2017-05-03T07:54:14.342Z,1035.96
2017-05-03T07:55:14.339Z,1036.03
2017-05-03T07:56:14.333Z,1036.09
2017-05-03T07:57:14.327Z,1036.1
2017-05-03T07:58:14.322Z,1036.08
2017-05-03T07:59:14.316Z,1036.13
2017-05-03T08:00:14.313Z,1036.02
2017-05-03T08:01:14.307Z,1035.98
2017-05-03T08:02:14.301Z,1035.99
2017-05-03T08:03:14.302Z,1035.95
2017-05-03T08:04:14.291Z,1036.01
2017-05-03T08:05:14.286Z,1035.93
2017-05-03T08:06:14.283Z,1035.87
2017-05-03T08:07:14.278Z,1035.88
2017-05-03T08:08:14.273Z,1035.87
2017-05-03T08:09:14.268Z,1035.92
2017-05-03T08:10:14.262Z,1035.81
2017-05-03T08:11:14.257Z,1035.63
2017-05-03T08:12:14.254Z,1035.46
2017-05-03T08:13:14.256Z,1035.19
2017-05-03T08:14:14.245Z,1034.89
2017-05-03T08:15:14.240Z,1034.8
2017-05-03T08:16:14.234Z,1034.74
2017-05-03T08:17:14.232Z,1034.5
2017-05-03T08:18:14.226Z,1034.23
2017-05-03T08:19:14.222Z,1034.12
2017-05-03T08:20:14.218Z,1033.97
2017-05-03T08:21:14.214Z,1033.96
2017-05-03T08:22:14.210Z,1034.04
2017-05-03T08:23:14.207Z,1033.97
2017-05-03T08:24:14.205Z,1034.03
2017-05-03T08:25:14.201Z,1034.09
2017-05-03T08:26:14.197Z,1034.19
2017-05-03T08:27:14.199Z,1034.22
2017-05-03T08:28:14.192Z,1034.31
2017-05-03T08:29:14.191Z,1034.36
2017-05-03T08:30:14.186Z,1034.42
2017-05-03T08:31:14.183Z,1034.58
2017-05-03T08:32:14.181Z,1034.78
2017-05-03T08:33:14.177Z,1034.6
2017-05-03T08:34:14.175Z,1034.74
2017-05-03T08:35:14.172Z,1034.95
2017-05-03T08:36:14.171Z,1034.89
2017-05-03T08:37:14.166Z,1034.88
2017-05-03T08:38:14.163Z,1034.79
2017-05-03T08:39:14.160Z,1034.76
2017-05-03T08:40:14.158Z,1034.73
2017-05-03T08:41:14.156Z,1034.7
2017-05-03T08:42:14.151Z,1034.67
2017-05-03T08:43:14.150Z,1034.6
2017-05-03T08:44:14.145Z,1034.62
2017-05-03T08:45:14.144Z,1034.67
2017-05-03T08:46:14.141Z,1034.53
2017-05-03T08:47:14.138Z,1034.41
2017-05-03T08:48:14.134Z,1034.31
2017-05-03T08:49:14.137Z,1034.35
2017-05-03T08:50:14.129Z,1034.23
2017-05-03T08:51:14.127Z,1034.15
2017-05-03T08:52:14.124Z,1034.12
2017-05-03T08:53:14.122Z,1034.06
2017-05-03T08:54:14.120Z,1034.16
2017-05-03T08:55:14.115Z,1034.23
2017-05-03T08:56:14.113Z,1034.31
2017-05-03T08:57:14.112Z,1034.35
2017-05-03T08:58:14.109Z,1034.37
2017-05-03T08:59:14.106Z,1034.46
2017-05-03T09:00:14.104Z,1034.46
2017-05-03T09:01:14.120Z,1034.5
2017-05-03T09:02:14.099Z,1034.44
2017-05-03T09:03:14.096Z,1034.47
2017-05-03T09:04:14.093Z,1034.41
2017-05-03T09:05:14.092Z,1034.42
2017-05-03T09:06:14.088Z,1034.39
2017-05-03T09:07:14.086Z,1034.43
2017-05-03T09:08:14.085Z,1034.47
2017-05-03T09:09:14.085Z,1034.53
2017-05-03T09:10:14.078Z,1034.6
2017-05-03T09:11:14.077Z,1034.71
2017-05-03T09:12:14.074Z,1034.76
2017-05-03T09:13:14.073Z,1034.78
2017-05-03T09:14:14.068Z,1034.79
2017-05-03T09:15:14.067Z,1034.76
2017-05-03T09:16:14.065Z,1034.89
2017-05-03T09:17:14.061Z,1034.88
2017-05-03T09:18:14.059Z,1034.81
2017-05-03T09:19:14.058Z,1034.82
2017-05-03T09:20:14.055Z,1034.82
2017-05-03T09:21:14.051Z,1034.71
2017-05-03T09:22:14.049Z,1034.54
2017-05-03T09:23:14.047Z,1034.5
2017-05-03T09:24:14.045Z,1034.42
2017-05-03T09:25:14.043Z,1034.41
2017-05-03T09:26:14.041Z,1034.43
2017-05-03T09:27:14.038Z,1034.46
2017-05-03T09:28:14.034Z,1034.43
2017-05-03T09:29:14.031Z,1034.37
2017-05-03T09:30:14.030Z,1034.45
2017-05-03T09:31:14.028Z,1034.43
2017-05-03T09:32:14.026Z,1034.37
2017-05-03T09:33:14.022Z,1034.25
2017-05-03T09:34:14.020Z,1034.17
2017-05-03T09:35:14.017Z,1034.14
2017-05-03T09:36:14.017Z,1033.95
2017-05-03T09:37:14.015Z,1033.87
2017-05-03T09:38:14.011Z,1033.8
2017-05-03T09:39:14.008Z,1033.73
2017-05-03T09:40:14.006Z,1033.7
2017-05-03T09:41:14.005Z,1033.7
2017-05-03T09:42:14.003Z,1033.64
2017-05-03T09:43:14.000Z,1033.43
2017-05-03T09:44:13.999Z,1033.33
2017-05-03T09:45:13.997Z,1033.24
2017-05-03T09:46:13.995Z,1033.11
2017-05-03T09:47:13.993Z,1032.97
2017-05-03T09:48:13.993Z,1032.91
2017-05-03T09:49:13.991Z,1032.85
2017-05-03T09:50:13.990Z,1032.94
2017-05-03T09:51:13.989Z,1032.92
2017-05-03T09:52:13.988Z,1032.94
2017-05-03T09:53:13.986Z,1032.9
2017-05-03T09:54:13.986Z,1032.75
2017-05-03T09:55:13.986Z,1032.66
2017-05-03T09:56:13.984Z,1032.66
2017-05-03T09:57:13.984Z,1032.68
2017-05-03T09:58:13.984Z,1032.58
2017-05-03T09:59:13.983Z,1032.52
2017-05-03T10:00:13.983Z,1032.51
2017-05-03T10:01:13.984Z,1032.48
2017-05-03T10:02:13.983Z,1032.43
2017-05-03T10:03:13.985Z,1032.38
2017-05-03T10:04:13.985Z,1032.33
2017-05-03T10:05:13.987Z,1032.25
2017-05-03T10:06:13.984Z,1032.32
2017-05-03T10:07:13.985Z,1032.33
2017-05-03T10:08:13.985Z,1032.36
2017-05-03T10:09:13.986Z,1032.29
2017-05-03T10:10:14.015Z,1032.22
2017-05-03T10:11:13.988Z,1032.3
2017-05-03T10:12:13.988Z,1032.36
2017-05-03T10:13:13.989Z,1032.37
2017-05-03T10:14:13.989Z,1032.45
2017-05-03T10:15:13.991Z,1032.46
2017-05-03T10:16:13.991Z,1032.51
2017-05-03T10:17:13.994Z,1032.66
2017-05-03T10:18:13.994Z,1032.85
2017-05-03T10:19:13.994Z,1032.98
2017-05-03T10:20:13.997Z,1033.2
2017-05-03T10:21:13.996Z,1033.37
2017-05-03T10:22:13.998Z,1033.35
2017-05-03T10:23:13.998Z,1033.25
2017-05-03T10:24:13.999Z,1033.14
2017-05-03T10:25:13.999Z,1033.11
2017-05-03T10:26:14.000Z,1033.03
2017-05-03T10:27:14.000Z,1033.02
2017-05-03T10:28:14.001Z,1033.08
2017-05-03T10:29:14.001Z,1033.07
2017-05-03T10:30:14.001Z,1033.01
2017-05-03T10:31:14.002Z,1032.89
2017-05-03T10:32:14.002Z,1032.77
2017-05-03T10:33:14.004Z,1032.79
2017-05-03T10:34:14.004Z,1032.94
2017-05-03T10:35:14.004Z,1033.1
2017-05-03T10:36:14.005Z,1033.33
2017-05-03T10:37:14.007Z,1033.46
2017-05-03T10:38:14.005Z,1033.44
2017-05-03T10:39:14.006Z,1033.35
2017-05-03T10:40:14.007Z,1033.26
2017-05-03T10:41:14.005Z,1033.31
2017-05-03T10:42:14.006Z,1033.46
2017-05-03T10:43:14.006Z,1033.6
2017-05-03T10:44:14.007Z,1033.75
2017-05-03T10:45:14.006Z,1033.82
2017-05-03T10:46:14.006Z,1033.75
2017-05-03T10:47:14.006Z,1033.82
2017-05-03T10:48:14.007Z,1033.89
2017-05-03T10:49:14.006Z,1034.16
2017-05-03T10:50:14.006Z,1034.19
2017-05-03T10:51:14.006Z,1034.13
2017-05-03T10:52:14.004Z,1033.83
2017-05-03T10:53:14.025Z,1033.64
2017-05-03T10:54:14.003Z,1033.49
2017-05-03T10:55:14.002Z,1033.42
2017-05-03T10:56:14.002Z,1033.44
2017-05-03T10:57:14.001Z,1033.48
2017-05-03T10:58:14.001Z,1033.63
2017-05-03T10:59:14.001Z,1033.76
2017-05-03T11:00:14.001Z,1033.9
2017-05-03T11:01:14.000Z,1034.06
2017-05-03T11:02:13.999Z,1034.1
2017-05-03T11:03:13.998Z,1034.03
2017-05-03T11:04:13.997Z,1033.97
2017-05-03T11:05:13.998Z,1033.92
2017-05-03T11:06:13.996Z,1033.82
2017-05-03T11:07:13.995Z,1033.64
2017-05-03T11:08:13.994Z,1033.64
2017-05-03T11:09:13.994Z,1033.6
2017-05-03T11:10:13.992Z,1033.63
2017-05-03T11:11:13.990Z,1033.63
2017-05-03T11:12:13.989Z,1033.55
2017-05-03T11:13:13.992Z,1033.45
2017-05-03T11:14:13.989Z,1033.24
2017-05-03T11:15:13.987Z,1033.14
2017-05-03T11:16:13.985Z,1032.92
2017-05-03T11:17:13.985Z,1032.87
2017-05-03T11:18:13.985Z,1032.92
2017-05-03T11:19:13.983Z,1032.94
2017-05-03T11:20:13.984Z,1033.02
2017-05-03T11:21:13.983Z,1033
2017-05-03T11:22:13.981Z,1033.03
2017-05-03T11:23:13.981Z,1033.12
2017-05-03T11:24:13.981Z,1033.25
2017-05-03T11:25:13.979Z,1033.43
2017-05-03T11:26:13.981Z,1033.64
2017-05-03T11:27:13.979Z,1033.69
2017-05-03T11:28:13.980Z,1033.73
2017-05-03T11:29:13.977Z,1033.78
2017-05-03T11:30:13.977Z,1033.87
2017-05-03T11:31:13.978Z,1033.95
2017-05-03T11:32:13.975Z,1033.98
2017-05-03T11:33:13.975Z,1033.98
2017-05-03T11:34:13.975Z,1033.94
2017-05-03T11:35:13.973Z,1033.72
2017-05-03T11:36:13.972Z,1033.5
2017-05-03T11:37:13.972Z,1033.34
2017-05-03T11:38:13.971Z,1033.23
2017-05-03T11:39:13.970Z,1033.22
2017-05-03T11:40:13.969Z,1033.3
2017-05-03T11:41:13.968Z,1033.47
2017-05-03T11:42:13.966Z,1033.43
2017-05-03T11:43:13.966Z,1033.46
2017-05-03T11:44:13.965Z,1033.29
2017-05-03T11:45:13.963Z,1033.04
2017-05-03T11:46:13.963Z,1032.95
2017-05-03T11:47:13.960Z,1033.09
2017-05-03T11:48:13.961Z,1032.82
2017-05-03T11:49:13.961Z,1032.87
2017-05-03T11:50:13.960Z,1032.82
2017-05-03T11:51:13.958Z,1032.87
2017-05-03T11:52:13.958Z,1032.82
2017-05-03T11:53:13.957Z,1032.96
2017-05-03T11:54:13.956Z,1033.11
2017-05-03T11:55:13.955Z,1033.19
2017-05-03T11:56:13.956Z,1033.26
2017-05-03T11:57:13.956Z,1033.32
2017-05-03T11:58:13.953Z,1033.27
2017-05-03T11:59:13.953Z,1033.35
2017-05-03T12:00:13.953Z,1033.38
2017-05-03T12:01:13.952Z,1033.47
2017-05-03T12:02:13.951Z,1033.61
2017-05-03T12:03:13.950Z,1033.48
2017-05-03T12:04:13.949Z,1033.54
2017-05-03T12:05:13.948Z,1033.65
2017-05-03T12:06:13.947Z,1033.78
2017-05-03T12:07:13.947Z,1033.9
2017-05-03T12:08:13.946Z,1034